| time (UTC) | temp F | wind direction | speed MPH | gust MPH | rain 1hr in | rain 24hr in | rain mn in | humidity % | barometer mb |
| 20260509223009 | 70 | 258 | 0.0 | 6.0 | 0.00 | 0.00 | 0.00 | 78 | 1024.4 |
| 20260509221511 | 69 | 116 | 0.0 | 7.0 | 0.00 | 0.00 | 0.00 | 78 | 1024.2 |
| 20260509220002 | 69 | 152 | 0.0 | 7.0 | 0.00 | 0.00 | 0.00 | 79 | 1024.1 |
| 20260509214602 | 68 | 194 | 0.0 | 9.0 | 0.00 | 0.00 | 0.00 | 81 | 1023.9 |
| 20260509213054 | 66 | 201 | 0.0 | 3.0 | 0.00 | 0.00 | 0.00 | 84 | 1023.8 |
| 20260509211554 | 65 | 214 | 0.0 | 4.0 | 0.00 | 0.00 | 0.00 | 86 | 1023.5 |
| 20260509204548 | 61 | 225 | 0.0 | 0.0 | 0.00 | 0.00 | 0.00 | 91 | 1023.4 |
| 20260509203109 | 61 | 223 | 0.0 | 0.0 | 0.00 | 0.00 | 0.00 | 90 | 1023.2 |
| 20260509201545 | 62 | 223 | 0.0 | 0.0 | 0.00 | 0.00 | 0.00 | 89 | 1023.0 |
| 20260509194551 | 63 | 237 | 0.0 | 2.0 | 0.00 | 0.00 | 0.00 | 89 | 1022.8 |
| 20260509193056 | 62 | 233 | 0.0 | 0.0 | 0.00 | 0.00 | 0.00 | 90 | 1022.6 |
| 20260509191556 | 61 | 223 | 0.0 | 2.0 | 0.00 | 0.00 | 0.00 | 90 | 1022.5 |
| 20260509184535 | 60 | 236 | 0.0 | 1.0 | 0.00 | 0.00 | 0.00 | 90 | 1022.4 |
| 20260509183031 | 58 | 235 | 0.0 | 2.0 | 0.00 | 0.00 | 0.00 | 92 | 1022.3 |
| 20260509181531 | 56 | 221 | 0.0 | 0.0 | 0.00 | 0.00 | 0.00 | 92 | 1022.3 |
| 20260509174524 | 56 | 233 | 0.0 | 0.0 | 0.00 | 0.00 | 0.00 | 90 | 1022.0 |
| 20260509173023 | 56 | 233 | 0.0 | 0.0 | 0.00 | 0.00 | 0.00 | 90 | 1021.8 |
| 20260509171523 | 56 | 233 | 0.0 | 0.0 | 0.00 | 0.00 | 0.00 | 89 | 1021.8 |
| 20260509164554 | 56 | 233 | 0.0 | 0.0 | 0.00 | 0.00 | 0.00 | 88 | 1021.8 |
| 20260509163042 | 56 | 235 | 0.0 | 0.0 | 0.00 | 0.00 | 0.00 | 88 | 1021.8 |
| 20260509161545 | 57 | 236 | 0.0 | 0.0 | 0.00 | 0.00 | 0.00 | 88 | 1021.9 |
| 20260509154522 | 56 | 239 | 0.0 | 0.0 | 0.00 | 0.00 | 0.00 | 88 | 1022.1 |
| 20260509153017 | 56 | 188 | 0.0 | 0.0 | 0.00 | 0.00 | 0.00 | 88 | 1022.2 |
| 20260509151516 | 56 | 238 | 0.0 | 0.0 | 0.00 | 0.00 | 0.00 | 89 | 1022.2 |
| 20260509144526 | 56 | 244 | 0.0 | 0.0 | 0.00 | 0.00 | 0.00 | 89 | 1022.3 |
| 20260509143017 | 56 | 230 | 0.0 | 0.0 | 0.00 | 0.00 | 0.00 | 89 | 1022.5 |
| 20260509141515 | 56 | 235 | 0.0 | 0.0 | 0.00 | 0.00 | 0.00 | 89 | 1022.5 |
| 20260509134512 | 56 | 222 | 0.0 | 0.0 | 0.00 | 0.00 | 0.00 | 89 | 1022.6 |
| 20260509133014 | 56 | 219 | 0.0 | 0.0 | 0.00 | 0.00 | 0.00 | 89 | 1022.6 |
| 20260509131511 | 56 | 230 | 0.0 | 0.0 | 0.00 | 0.00 | 0.00 | 89 | 1022.7 |
| 20260509124512 | 56 | 233 | 0.0 | 0.0 | 0.00 | 0.00 | 0.00 | 89 | 1022.7 |
| 20260509123012 | 56 | 233 | 0.0 | 0.0 | 0.00 | 0.00 | 0.00 | 87 | 1022.6 |
| 20260509121511 | 56 | 233 | 0.0 | 0.0 | 0.00 | 0.00 | 0.00 | 86 | 1022.6 |
| 20260509114510 | 58 | 232 | 0.0 | 0.0 | 0.00 | 0.00 | 0.00 | 85 | 1022.5 |
| 20260509113011 | 59 | 228 | 0.0 | 0.0 | 0.00 | 0.00 | 0.00 | 85 | 1022.4 |
| 20260509111509 | 59 | 227 | 0.0 | 0.0 | 0.00 | 0.00 | 0.00 | 85 | 1022.6 |
| 20260509104509 | 59 | 219 | 0.0 | 0.0 | 0.00 | 0.00 | 0.00 | 85 | 1022.7 |
| 20260509103014 | 59 | 221 | 0.0 | 0.0 | 0.00 | 0.00 | 0.00 | 85 | 1022.7 |
| 20260509101508 | 59 | 221 | 0.0 | 0.0 | 0.00 | 0.00 | 0.00 | 85 | 1022.7 |
| 20260509094525 | 60 | 221 | 0.0 | 0.0 | 0.00 | 0.00 | 0.00 | 82 | 1022.4 |
| 20260509093023 | 61 | 221 | 0.0 | 0.0 | 0.00 | 0.00 | 0.00 | 82 | 1022.3 |
| 20260509091523 | 62 | 226 | 0.0 | 0.0 | 0.00 | 0.00 | 0.00 | 82 | 1022.2 |
| 20260509084559 | 63 | 226 | 0.0 | 0.0 | 0.00 | 0.00 | 0.00 | 79 | 1021.8 |
| 20260509083058 | 63 | 145 | 0.0 | 0.0 | 0.00 | 0.00 | 0.00 | 78 | 1021.7 |
| 20260509081603 | 64 | 145 | 0.0 | 0.0 | 0.00 | 0.00 | 0.00 | 76 | 1021.6 |
| 20260509074600 | 66 | 145 | 0.0 | 0.0 | 0.00 | 0.00 | 0.00 | 72 | 1021.2 |
| 20260509073100 | 67 | 145 | 0.0 | 0.0 | 0.00 | 0.00 | 0.00 | 69 | 1021.0 |
| 20260509071600 | 68 | 145 | 0.0 | 0.0 | 0.00 | 0.00 | 0.00 | 67 | 1020.9 |
| 20260509064527 | 71 | 100 | 0.0 | 3.0 | 0.00 | 0.00 | 0.00 | 61 | 1020.5 |
| 20260509063026 | 72 | 200 | 0.0 | 0.0 | 0.00 | 0.00 | 0.00 | 58 | 1020.3 |
| 20260509061526 | 74 | 149 | 0.0 | 1.0 | 0.00 | 0.00 | 0.00 | 57 | 1020.1 |
| 20260509054511 | 76 | 50 | 0.0 | 0.0 | 0.00 | 0.00 | 0.00 | 54 | 1019.9 |
| 20260509053013 | 75 | 41 | 0.0 | 3.0 | 0.00 | 0.00 | 0.00 | 56 | 1019.9 |
| 20260509051510 | 76 | 81 | 0.0 | 5.0 | 0.00 | 0.00 | 0.00 | 56 | 1019.9 |
| 20260509044603 | 76 | 220 | 0.0 | 2.0 | 0.00 | 0.00 | 0.00 | 55 | 1019.9 |
| 20260509043056 | 75 | 123 | 0.0 | 2.0 | 0.00 | 0.00 | 0.00 | 56 | 1019.9 |
| 20260509041555 | 75 | 81 | 0.0 | 8.0 | 0.00 | 0.00 | 0.00 | 55 | 1020.0 |
| 20260509034555 | 76 | 87 | 1.0 | 6.0 | 0.00 | 0.00 | 0.00 | 55 | 1020.0 |
| 20260509033054 | 76 | 202 | 0.0 | 2.0 | 0.00 | 0.00 | 0.00 | 55 | 1020.0 |
| 20260509031552 | 75 | 334 | 0.0 | 6.0 | 0.00 | 0.00 | 0.00 | 56 | 1020.0 |
| 20260509024546 | 74 | 308 | 0.0 | 2.0 | 0.00 | 0.00 | 0.00 | 56 | 1020.4 |
| 20260509023055 | 73 | 111 | 0.0 | 6.0 | 0.00 | 0.00 | 0.00 | 57 | 1020.5 |
| 20260509021544 | 73 | 116 | 0.0 | 2.0 | 0.00 | 0.00 | 0.00 | 58 | 1020.8 |
| 20260509014538 | 74 | 136 | 1.0 | 6.0 | 0.00 | 0.00 | 0.00 | 55 | 1021.1 |
| 20260509013038 | 74 | 86 | 1.0 | 5.0 | 0.00 | 0.00 | 0.00 | 56 | 1021.3 |
| 20260509011535 | 74 | 225 | 0.0 | 8.0 | 0.00 | 0.00 | 0.00 | 58 | 1021.3 |
| 20260509004539 | 73 | 88 | 0.0 | 5.0 | 0.00 | 0.00 | 0.00 | 58 | 1021.5 |
| 20260509003034 | 72 | 116 | 0.0 | 7.0 | 0.00 | 0.00 | 0.00 | 58 | 1021.6 |
| 20260509001530 | 71 | 109 | 0.0 | 7.0 | 0.00 | 0.00 | 0.00 | 59 | 1021.6 |
| 20260508234535 | 71 | 320 | 0.0 | 4.0 | 0.00 | 0.00 | 0.00 | 56 | 1021.6 |
| 20260508233023 | 70 | 191 | 0.0 | 3.0 | 0.00 | 0.00 | 0.00 | 56 | 1021.5 |
| 20260508231519 | 69 | 72 | 0.0 | 4.0 | 0.00 | 0.00 | 0.00 | 55 | 1021.4 |
| 20260508224515 | 65 | 232 | 0.0 | 0.0 | 0.00 | 0.00 | 0.00 | 74 | 1021.2 |